Time;durP1;ratioP1;P1;durP2;ratioP2;P2;SDS_P1;SDS_P2;PMS_P1;PMS_P2;Temp;Humidity;BMP_temperature;BMP_pressure;BME280_temperature;BME280_humidity;BME280_pressure;Samples;Min_cycle;Max_cycle;Signal;HPM_P1;HPM_P2
2023/08/05 00:00:12;;;;;;;9.32;5.70;;;14.40;99.90;;;;;;5069638;28;20033;-49
2023/08/05 00:02:38;;;;;;;;;;;14.40;99.90;;;;;;5070314;28;20040;-49
2023/08/05 00:05:04;;;;;;;8.02;5.35;;;14.40;99.90;;;;;;5064351;28;20506;-50
2023/08/05 00:07:30;;;;;;;7.07;5.82;;;14.40;99.90;;;;;;5069511;28;20044;-49
2023/08/05 00:09:55;;;;;;;13.55;6.13;;;14.40;99.90;;;;;;5069569;28;20094;-49
2023/08/05 00:12:21;;;;;;;9.85;6.35;;;14.40;99.90;;;;;;5068807;28;20067;-51
2023/08/05 00:14:47;;;;;;;10.82;6.32;;;14.50;99.90;;;;;;5068414;28;20107;-52
2023/08/05 00:17:12;;;;;;;13.88;6.40;;;14.40;99.90;;;;;;5066189;28;20039;-49
2023/08/05 00:19:38;;;;;;;13.00;6.93;;;14.40;99.90;;;;;;5069243;28;20226;-49
2023/08/05 00:22:07;;;;;;;11.43;6.15;;;14.40;99.90;;;;;;5069616;28;20044;-49
2023/08/05 00:24:32;;;;;;;9.93;5.80;;;14.40;99.90;;;;;;5069558;28;20036;-51
2023/08/05 00:26:58;;;;;;;7.85;5.20;;;14.40;99.90;;;;;;5067883;28;20052;-50
2023/08/05 00:29:23;;;;;;;9.20;5.90;;;14.40;99.90;;;;;;5069119;28;20040;-51
2023/08/05 00:31:49;;;;;;;6.78;5.85;;;14.40;99.90;;;;;;5069578;28;20041;-50
2023/08/05 00:34:14;;;;;;;7.05;6.13;;;14.40;99.90;;;;;;5069537;28;20060;-49
2023/08/05 00:36:40;;;;;;;7.90;6.07;;;14.40;99.90;;;;;;5069274;28;20038;-50
2023/08/05 00:39:05;;;;;;;12.77;5.75;;;14.40;99.90;;;;;;5068877;28;20119;-49
2023/08/05 00:41:31;;;;;;;13.77;5.72;;;14.40;99.90;;;;;;5069096;28;20040;-50
2023/08/05 00:43:57;;;;;;;9.02;6.80;;;14.40;99.90;;;;;;5069540;28;20758;-50
2023/08/05 00:46:23;;;;;;;8.77;5.32;;;14.40;99.90;;;;;;5072818;28;20040;-54
2023/08/05 00:48:51;;;;;;;4.22;3.53;;;14.40;99.90;;;;;;5072594;28;20064;-49
2023/08/05 00:51:18;;;;;;;5.28;4.07;;;14.30;99.90;;;;;;5072661;28;20087;-49
2023/08/05 00:53:45;;;;;;;5.55;3.65;;;14.30;99.90;;;;;;5072986;28;20082;-50
2023/08/05 00:56:11;;;;;;;5.35;3.55;;;14.20;99.90;;;;;;5072288;28;20051;-51
2023/08/05 00:58:38;;;;;;;5.32;2.97;;;14.20;99.90;;;;;;5072909;28;20482;-49
2023/08/05 01:01:03;;;;;;;3.25;2.50;;;14.10;99.90;;;;;;5072469;28;20046;-50
2023/08/05 01:03:29;;;;;;;5.60;2.78;;;14.00;99.90;;;;;;5073103;28;20036;-52
2023/08/05 01:05:56;;;;;;;4.82;3.33;;;13.90;99.90;;;;;;5073145;28;20456;-49
2023/08/05 01:08:22;;;;;;;4.28;3.30;;;13.90;99.90;;;;;;5071995;28;20041;-54
2023/08/05 01:10:48;;;;;;;5.60;4.05;;;13.80;99.90;;;;;;5072513;28;20393;-50
2023/08/05 01:13:14;;;;;;;7.53;5.28;;;13.80;99.90;;;;;;5072016;28;20040;-56
2023/08/05 01:15:42;;;;;;;13.18;5.93;;;13.80;99.90;;;;;;5068997;28;20040;-52
2023/08/05 01:18:09;;;;;;;9.77;4.85;;;13.70;99.90;;;;;;5072085;28;20033;-53
2023/08/05 01:20:38;;;;;;;;;;;13.80;99.90;;;;;;5071526;28;20045;-51
2023/08/05 01:23:14;;;;;;;6.85;3.10;;;13.70;99.90;;;;;;5072052;28;19917;-50
2023/08/05 01:25:40;;;;;;;3.83;3.15;;;13.70;99.90;;;;;;5072561;28;20041;-49
2023/08/05 01:28:08;;;;;;;3.20;2.67;;;13.60;99.90;;;;;;5072126;28;20490;-52
2023/08/05 01:30:34;;;;;;;4.47;3.78;;;13.50;99.90;;;;;;5072236;28;20044;-52
2023/08/05 01:33:01;;;;;;;8.55;4.40;;;13.40;99.90;;;;;;5072130;28;20039;-50
2023/08/05 01:35:27;;;;;;;8.30;5.38;;;13.40;99.90;;;;;;5070374;28;20410;-52
2023/08/05 01:37:52;;;;;;;5.47;4.50;;;13.40;99.90;;;;;;5071782;28;20044;-50
2023/08/05 01:40:18;;;;;;;4.50;4.10;;;13.50;99.90;;;;;;5072225;28;20037;-50
2023/08/05 01:42:44;;;;;;;4.28;2.95;;;13.40;99.90;;;;;;5072209;28;20033;-49
2023/08/05 01:45:09;;;;;;;3.40;2.90;;;13.40;99.90;;;;;;5070735;28;20052;-52
2023/08/05 01:47:35;;;;;;;1.98;1.83;;;13.30;99.90;;;;;;5071570;28;20029;-49
2023/08/05 01:50:01;;;;;;;3.78;2.05;;;13.10;99.90;;;;;;5071602;28;20029;-49
2023/08/05 01:52:26;;;;;;;2.85;2.35;;;13.10;99.90;;;;;;5071107;28;20040;-51
2023/08/05 01:54:52;;;;;;;3.57;2.77;;;13.00;99.90;;;;;;5071445;28;20028;-52
2023/08/05 01:57:17;;;;;;;2.90;2.55;;;13.00;99.90;;;;;;5071167;28;20267;-50
2023/08/05 01:59:43;;;;;;;2.35;2.15;;;13.00;99.90;;;;;;5071792;28;20040;-50
2023/08/05 02:02:08;;;;;;;5.87;3.10;;;13.00;99.90;;;;;;5071904;28;20573;-51
2023/08/05 02:04:34;;;;;;;7.07;3.20;;;13.00;99.90;;;;;;5070673;28;20647;-49
2023/08/05 02:06:59;;;;;;;3.72;3.28;;;13.00;99.90;;;;;;5070907;28;20119;-49
2023/08/05 02:09:25;;;;;;;6.82;3.15;;;13.10;99.90;;;;;;5071536;28;20047;-49
2023/08/05 02:11:51;;;;;;;2.80;2.50;;;13.10;99.90;;;;;;5071120;28;20033;-53
2023/08/05 02:14:16;;;;;;;1.50;1.40;;;13.10;99.90;;;;;;5071375;28;20032;-49
2023/08/05 02:16:42;;;;;;;2.28;1.83;;;13.10;99.90;;;;;;5071291;28;20064;-49
2023/08/05 02:19:07;;;;;;;2.42;1.40;;;13.00;99.90;;;;;;5071359;28;20098;-51
2023/08/05 02:21:33;;;;;;;3.75;1.67;;;13.00;99.90;;;;;;5065341;28;20505;-51
2023/08/05 02:23:58;;;;;;;1.80;1.67;;;12.90;99.90;;;;;;5070164;28;20064;-49
2023/08/05 02:26:24;;;;;;;6.15;1.70;;;12.80;99.90;;;;;;5070778;28;20099;-49
2023/08/05 02:28:50;;;;;;;3.03;2.53;;;12.80;99.90;;;;;;5071073;28;20040;-51
2023/08/05 02:31:16;;;;;;;4.70;2.35;;;12.80;99.90;;;;;;5070969;28;20510;-49
2023/08/05 02:33:42;;;;;;;6.35;3.83;;;12.80;99.90;;;;;;5071052;28;20112;-49
2023/08/05 02:36:07;;;;;;;5.68;5.00;;;12.80;99.90;;;;;;5070447;28;20181;-49
2023/08/05 02:38:33;;;;;;;6.80;4.15;;;12.80;99.90;;;;;;5070599;28;20044;-52
2023/08/05 02:40:59;;;;;;;7.35;3.78;;;12.70;99.90;;;;;;5070999;28;20085;-50
2023/08/05 02:43:24;;;;;;;6.55;4.63;;;12.70;99.90;;;;;;5071142;28;20497;-49
2023/08/05 02:45:57;;;;;;;4.07;3.67;;;12.70;99.90;;;;;;5070698;28;20121;-49
2023/08/05 02:48:23;;;;;;;8.25;4.55;;;12.70;99.90;;;;;;5070450;28;20041;-51
2023/08/05 02:50:50;;;;;;;4.70;3.83;;;12.70;99.90;;;;;;5070463;28;20124;-52
2023/08/05 02:53:16;;;;;;;10.10;5.03;;;12.80;99.90;;;;;;5071116;28;20047;-51
2023/08/05 02:55:41;;;;;;;6.63;4.78;;;12.80;99.90;;;;;;5070432;28;20398;-53
2023/08/05 02:58:07;;;;;;;8.27;4.78;;;12.80;99.90;;;;;;5070547;28;20040;-49
2023/08/05 03:00:32;;;;;;;8.82;5.28;;;12.80;99.90;;;;;;5070750;28;20029;-49
2023/08/05 03:02:58;;;;;;;6.35;5.18;;;12.80;99.90;;;;;;5070245;28;20493;-49
2023/08/05 03:05:24;;;;;;;5.38;4.78;;;12.90;99.90;;;;;;5070443;28;20421;-52
2023/08/05 03:07:50;;;;;;;7.60;4.65;;;12.90;99.90;;;;;;5069219;28;20097;-51
2023/08/05 03:10:15;;;;;;;5.68;4.95;;;13.00;99.90;;;;;;5070301;28;20040;-49
2023/08/05 03:12:41;;;;;;;7.22;4.55;;;13.00;99.90;;;;;;5070551;28;20504;-49
2023/08/05 03:15:07;;;;;;;6.47;4.60;;;12.90;99.90;;;;;;5070343;28;20493;-50
2023/08/05 03:17:32;;;;;;;5.28;4.82;;;13.00;99.90;;;;;;5069488;28;20044;-51
2023/08/05 03:19:58;;;;;;;6.28;5.68;;;13.00;99.90;;;;;;5070201;28;20040;-50
2023/08/05 03:22:24;;;;;;;8.48;6.97;;;13.10;99.90;;;;;;5070380;28;20497;-51
2023/08/05 03:24:49;;;;;;;9.40;7.53;;;13.10;99.90;;;;;;5065620;28;20417;-49
2023/08/05 03:27:15;;;;;;;8.65;6.78;;;13.10;99.90;;;;;;5069709;28;20039;-51
2023/08/05 03:29:40;;;;;;;9.55;7.70;;;13.20;99.90;;;;;;5070577;28;20068;-49
2023/08/05 03:32:06;;;;;;;7.72;6.32;;;13.20;99.90;;;;;;5070130;28;20037;-49
2023/08/05 03:34:32;;;;;;;9.52;5.78;;;13.20;99.90;;;;;;5070467;28;20489;-52
2023/08/05 03:36:57;;;;;;;6.53;5.85;;;13.20;99.90;;;;;;5069930;28;20162;-51
2023/08/05 03:39:23;;;;;;;8.02;7.13;;;13.20;99.90;;;;;;5070187;28;20412;-49
2023/08/05 03:41:48;;;;;;;9.18;6.68;;;13.30;99.90;;;;;;5070053;28;20029;-49
2023/08/05 03:44:14;;;;;;;11.40;7.03;;;13.30;99.90;;;;;;5069948;28;20079;-52
2023/08/05 03:46:40;;;;;;;8.50;6.68;;;13.30;99.90;;;;;;5069713;28;20037;-54
2023/08/05 03:49:05;;;;;;;7.75;6.10;;;13.30;99.90;;;;;;5069829;28;20044;-49
2023/08/05 03:51:32;;;;;;;10.65;6.70;;;13.40;99.90;;;;;;5070158;28;20045;-49
2023/08/05 03:53:58;;;;;;;9.63;7.22;;;13.40;99.90;;;;;;5070369;28;20047;-49
2023/08/05 03:56:26;;;;;;;9.38;6.65;;;13.40;99.90;;;;;;5070164;28;20040;-49
2023/08/05 03:58:55;;;;;;;13.52;7.38;;;13.40;99.90;;;;;;5069283;28;20032;-49
2023/08/05 04:01:26;;;;;;;6.03;5.28;;;13.50;99.90;;;;;;5069569;28;20126;-50
2023/08/05 04:03:51;;;;;;;8.20;6.32;;;13.50;99.90;;;;;;5069931;28;20041;-49
2023/08/05 04:06:20;;;;;;;9.43;6.60;;;13.50;99.90;;;;;;5069829;28;20047;-52
2023/08/05 04:08:48;;;;;;;7.28;5.95;;;13.50;99.90;;;;;;5068148;28;20132;-49
2023/08/05 04:11:14;;;;;;;8.35;6.85;;;13.50;99.90;;;;;;5069708;28;20032;-50
2023/08/05 04:13:39;;;;;;;10.68;6.65;;;13.50;99.90;;;;;;5069597;28;20047;-50
2023/08/05 04:16:06;;;;;;;7.13;6.10;;;13.50;99.90;;;;;;5069922;28;20694;-50
2023/08/05 04:18:36;;;;;;;5.05;4.40;;;13.40;99.90;;;;;;5067914;28;20045;-49
2023/08/05 04:21:04;;;;;;;5.85;5.03;;;13.40;99.90;;;;;;5073571;28;20033;-50
2023/08/05 04:23:32;;;;;;;5.95;4.85;;;13.40;99.90;;;;;;5074038;28;20052;-49
2023/08/05 04:25:59;;;;;;;8.82;5.60;;;13.30;99.90;;;;;;5073683;28;20070;-53
2023/08/05 04:28:25;;;;;;;9.77;5.68;;;13.30;99.90;;;;;;5068970;28;20135;-56
2023/08/05 04:30:52;;;;;;;9.95;6.43;;;13.30;99.90;;;;;;5071659;28;20139;-52
2023/08/05 04:33:18;;;;;;;7.85;5.88;;;13.30;99.90;;;;;;5073409;28;20060;-49
2023/08/05 04:35:47;;;;;;;8.40;6.25;;;13.30;99.90;;;;;;5073630;28;20501;-49
2023/08/05 04:38:14;;;;;;;7.70;5.88;;;13.40;99.90;;;;;;5073049;28;20464;-51
2023/08/05 04:40:39;;;;;;;6.82;4.40;;;13.40;99.90;;;;;;5073433;28;20123;-49
2023/08/05 04:43:05;;;;;;;6.63;4.25;;;13.30;99.90;;;;;;5073014;28;20115;-51
2023/08/05 04:45:31;;;;;;;5.88;4.38;;;13.30;99.90;;;;;;5073636;28;20089;-49
2023/08/05 04:47:56;;;;;;;3.88;3.28;;;13.30;99.90;;;;;;5073169;28;20367;-49
2023/08/05 04:50:22;;;;;;;4.13;3.57;;;13.30;99.90;;;;;;5073164;28;20041;-49
2023/08/05 04:52:48;;;;;;;6.38;5.43;;;13.20;99.90;;;;;;5073376;28;20275;-50
2023/08/05 04:55:15;;;;;;;8.88;6.13;;;13.20;99.90;;;;;;5072817;28;20041;-52
2023/08/05 04:57:42;;;;;;;9.77;6.70;;;13.10;99.90;;;;;;5072277;28;20154;-49
2023/08/05 05:00:08;;;;;;;7.15;5.93;;;13.10;99.90;;;;;;5073006;28;20044;-50
2023/08/05 05:02:34;;;;;;;7.68;6.63;;;13.00;99.90;;;;;;5073116;28;20043;-50
2023/08/05 05:05:00;;;;;;;9.02;6.43;;;13.10;99.90;;;;;;5072719;28;20115;-51
2023/08/05 05:07:25;;;;;;;;;;;13.10;99.90;;;;;;5073087;28;20072;-49
2023/08/05 05:09:51;;;;;;;7.05;5.88;;;13.20;99.90;;;;;;5072578;28;20326;-49
2023/08/05 05:12:17;;;;;;;8.38;7.20;;;13.30;99.90;;;;;;5072221;28;20391;-50
2023/08/05 05:14:46;;;;;;;11.23;7.05;;;13.40;99.90;;;;;;5072386;28;20041;-49
2023/08/05 05:17:16;;;;;;;11.50;7.57;;;13.40;99.90;;;;;;5072373;28;20081;-49
2023/08/05 05:19:42;;;;;;;9.13;7.97;;;13.50;99.90;;;;;;5071259;28;20044;-50
2023/08/05 05:22:08;;;;;;;10.93;7.43;;;13.60;99.90;;;;;;5071737;28;20071;-52
2023/08/05 05:24:34;;;;;;;9.73;7.57;;;13.70;99.90;;;;;;5072189;28;20062;-52
2023/08/05 05:27:00;;;;;;;9.98;8.52;;;13.70;99.90;;;;;;5071434;28;20047;-51
2023/08/05 05:29:25;;;;;;;11.18;8.95;;;13.90;99.90;;;;;;5072150;28;20527;-51
2023/08/05 05:31:51;;;;;;;10.48;8.90;;;13.90;99.90;;;;;;5071319;28;20117;-49
2023/08/05 05:34:17;;;;;;;10.77;8.80;;;14.00;99.90;;;;;;5066853;28;20039;-50
2023/08/05 05:36:42;;;;;;;11.75;9.35;;;14.00;99.90;;;;;;5072420;28;20099;-49
2023/08/05 05:39:08;;;;;;;15.18;8.63;;;14.10;99.90;;;;;;5072294;28;20036;-54
2023/08/05 05:41:33;;;;;;;20.30;9.38;;;14.10;99.90;;;;;;5071963;28;20040;-49
2023/08/05 05:43:59;;;;;;;12.85;9.07;;;14.10;99.90;;;;;;5072486;28;20452;-49
2023/08/05 05:46:26;;;;;;;12.57;8.35;;;14.20;99.90;;;;;;5072733;28;20082;-54
2023/08/05 05:48:51;;;;;;;17.10;8.50;;;14.20;99.90;;;;;;5072021;28;20055;-50
2023/08/05 05:51:17;;;;;;;16.10;9.02;;;14.20;99.90;;;;;;5071636;28;20401;-49
2023/08/05 05:53:43;;;;;;;13.90;8.63;;;14.30;99.90;;;;;;5072089;28;20042;-52
2023/08/05 05:56:08;;;;;;;13.75;8.45;;;14.30;99.90;;;;;;5070103;28;20032;-50
2023/08/05 05:58:35;;;;;;;11.85;8.27;;;14.30;99.90;;;;;;5071740;28;20451;-49
2023/08/05 06:01:01;;;;;;;;;;;14.40;99.90;;;;;;5071416;28;20085;-53
2023/08/05 06:03:27;;;;;;;14.98;8.77;;;14.40;99.90;;;;;;5071126;28;19920;-53
2023/08/05 06:05:53;;;;;;;13.15;8.25;;;14.40;99.90;;;;;;5071063;28;20528;-52
2023/08/05 06:08:18;;;;;;;13.00;7.47;;;14.50;99.90;;;;;;5070691;28;20044;-54
2023/08/05 06:10:44;;;;;;;12.05;7.00;;;14.50;99.90;;;;;;5068056;28;20048;-50
2023/08/05 06:13:10;;;;;;;9.93;7.63;;;14.70;99.90;;;;;;5071759;28;20111;-50
2023/08/05 06:15:40;;;;;;;8.65;5.85;;;14.80;99.90;;;;;;5071515;28;20036;-50
2023/08/05 06:18:07;;;;;;;9.30;5.85;;;14.90;99.90;;;;;;5071030;28;20037;-50
2023/08/05 06:20:33;;;;;;;6.50;4.47;;;15.10;99.90;;;;;;5071051;28;20379;-53
2023/08/05 06:22:58;;;;;;;10.93;3.92;;;15.10;99.90;;;;;;5071258;28;20033;-53
2023/08/05 06:25:24;;;;;;;4.78;4.28;;;15.20;99.90;;;;;;5070854;28;20109;-50
2023/08/05 06:27:49;;;;;;;11.60;4.68;;;15.30;99.90;;;;;;5071203;28;20032;-50
2023/08/05 06:30:15;;;;;;;9.55;5.35;;;15.30;99.90;;;;;;5070992;28;20562;-51
2023/08/05 06:32:40;;;;;;;11.48;6.35;;;15.30;99.90;;;;;;5071217;28;20123;-49
2023/08/05 06:35:06;;;;;;;8.90;6.30;;;15.30;99.90;;;;;;5070898;28;20115;-49
2023/08/05 06:37:32;;;;;;;7.72;5.88;;;15.30;99.90;;;;;;5069730;28;20047;-50
2023/08/05 06:39:57;;;;;;;10.68;6.20;;;15.30;99.90;;;;;;5067788;28;20040;-49
2023/08/05 06:42:24;;;;;;;6.75;6.03;;;15.30;99.90;;;;;;5063124;28;20032;-52
2023/08/05 06:44:49;;;;;;;;;;;15.40;99.90;;;;;;5066233;28;20376;-51
2023/08/05 06:47:15;;;;;;;9.50;5.32;;;15.40;99.90;;;;;;5070372;28;19917;-52
2023/08/05 06:49:41;;;;;;;10.25;5.38;;;15.50;99.90;;;;;;5070903;28;20044;-49
2023/08/05 06:52:07;;;;;;;11.60;5.10;;;15.50;99.90;;;;;;5069631;28;20111;-52
2023/08/05 06:54:32;;;;;;;14.13;6.35;;;15.60;99.90;;;;;;5070115;28;20139;-53
2023/08/05 06:56:58;;;;;;;7.30;5.60;;;15.70;99.90;;;;;;5066092;28;20462;-51
2023/08/05 06:59:24;;;;;;;9.80;3.88;;;15.80;99.90;;;;;;5065068;28;20024;-53
2023/08/05 07:01:49;;;;;;;11.45;5.55;;;15.80;99.90;;;;;;5070093;28;20032;-51
2023/08/05 07:04:15;;;;;;;14.98;6.50;;;15.90;99.90;;;;;;5068880;28;20041;-52
2023/08/05 07:06:42;;;;;;;10.82;6.57;;;15.90;99.90;;;;;;5069596;28;20115;-52
2023/08/05 07:09:08;;;;;;;11.00;6.18;;;15.90;99.90;;;;;;5069341;28;20044;-50
2023/08/05 07:11:35;;;;;;;7.97;6.30;;;16.00;99.90;;;;;;5069636;28;20036;-52
2023/08/05 07:14:01;;;;;;;8.23;4.90;;;16.00;99.90;;;;;;5066796;28;20037;-49
2023/08/05 07:16:26;;;;;;;7.38;4.80;;;16.00;99.90;;;;;;5068131;28;20029;-49
2023/08/05 07:18:52;;;;;;;7.53;4.32;;;16.10;99.90;;;;;;5070135;28;20050;-50
2023/08/05 07:21:18;;;;;;;10.40;4.97;;;16.10;99.90;;;;;;5069667;28;20048;-52
2023/08/05 07:23:44;;;;;;;7.35;4.25;;;16.10;99.90;;;;;;5070147;28;20047;-51
2023/08/05 07:26:09;;;;;;;12.50;4.50;;;16.20;99.90;;;;;;5069779;28;20032;-54
2023/08/05 07:28:35;;;;;;;7.85;4.10;;;16.30;99.90;;;;;;5068122;28;20044;-49
2023/08/05 07:31:07;;;;;;;8.18;4.90;;;16.30;99.90;;;;;;5069671;28;20125;-50
2023/08/05 07:33:33;;;;;;;8.13;4.32;;;16.40;99.90;;;;;;5069951;28;20379;-52
2023/08/05 07:36:07;;;;;;;8.55;3.85;;;16.50;99.90;;;;;;5068475;28;20165;-51
2023/08/05 07:38:35;;;;;;;9.73;3.67;;;16.60;99.90;;;;;;5069251;28;20410;-49
2023/08/05 07:41:01;;;;;;;9.77;3.65;;;16.70;99.90;;;;;;5069827;28;20040;-52
2023/08/05 07:43:29;;;;;;;10.45;3.53;;;16.70;99.90;;;;;;5068785;28;20044;-53
2023/08/05 07:45:59;;;;;;;6.70;3.72;;;16.80;99.90;;;;;;5069853;28;20037;-50
2023/08/05 07:48:27;;;;;;;6.88;3.70;;;16.80;99.90;;;;;;5068885;28;20098;-50
2023/08/05 07:50:53;;;;;;;6.68;2.20;;;17.00;99.90;;;;;;5067281;28;20036;-50
2023/08/05 07:53:21;;;;;;;8.05;2.47;;;17.00;99.90;;;;;;5059894;28;20543;-49
2023/08/05 07:55:49;;;;;;;5.38;2.13;;;17.10;99.90;;;;;;5068236;28;20043;-50
2023/08/05 07:58:17;;;;;;;4.60;1.77;;;17.10;99.90;;;;;;5069211;28;20037;-50
2023/08/05 08:00:44;;;;;;;6.18;1.73;;;17.20;99.90;;;;;;5069457;28;20493;-52
2023/08/05 08:03:09;;;;;;;4.68;1.83;;;17.20;99.90;;;;;;5067239;28;20115;-53
2023/08/05 08:05:35;;;;;;;4.43;1.40;;;17.30;99.90;;;;;;5069985;28;20124;-50
2023/08/05 08:08:01;;;;;;;11.00;1.88;;;17.40;99.90;;;;;;5069047;28;20036;-51
2023/08/05 08:10:27;;;;;;;;;;;17.50;99.90;;;;;;5069846;28;20040;-50
2023/08/05 08:12:52;;;;;;;5.30;1.60;;;17.70;99.90;;;;;;5068793;28;19923;-50
2023/08/05 08:15:18;;;;;;;4.03;1.05;;;17.70;99.90;;;;;;5063836;28;20044;-51
2023/08/05 08:17:44;;;;;;;4.03;1.42;;;17.80;99.90;;;;;;5068712;28;20079;-50
2023/08/05 08:20:10;;;;;;;2.38;1.20;;;17.80;99.90;;;;;;5068750;28;20036;-50
2023/08/05 08:22:36;;;;;;;5.25;1.25;;;17.90;99.90;;;;;;5069422;28;20051;-50
2023/08/05 08:25:01;;;;;;;2.08;1.52;;;18.00;99.90;;;;;;5068061;28;20033;-50
2023/08/05 08:27:27;;;;;;;6.72;2.15;;;18.10;99.90;;;;;;5068865;28;20443;-50
2023/08/05 08:29:52;;;;;;;2.72;1.08;;;18.20;99.90;;;;;;5069299;28;20119;-52
2023/08/05 08:32:18;;;;;;;2.88;1.25;;;18.30;99.90;;;;;;5057421;28;20037;-50
2023/08/05 08:34:44;;;;;;;2.50;0.90;;;18.30;99.90;;;;;;5057302;28;20532;-50
2023/08/05 08:37:09;;;;;;;2.08;1.00;;;18.20;99.90;;;;;;5066216;28;20041;-54
2023/08/05 08:39:35;;;;;;;2.67;1.15;;;18.10;99.90;;;;;;5062382;28;20037;-52
2023/08/05 08:42:01;;;;;;;2.83;1.00;;;18.10;99.90;;;;;;5067442;28;20471;-50
2023/08/05 08:44:29;;;;;;;4.95;1.27;;;18.10;99.90;;;;;;5066613;28;20044;-49
2023/08/05 08:46:56;;;;;;;3.70;1.40;;;18.10;99.90;;;;;;5068216;28;20036;-52
2023/08/05 08:49:23;;;;;;;2.05;1.23;;;18.10;99.90;;;;;;5069154;28;20111;-53
2023/08/05 08:51:50;;;;;;;3.78;1.23;;;18.10;99.90;;;;;;5068892;28;20033;-53
2023/08/05 08:54:17;;;;;;;5.15;1.30;;;18.20;99.90;;;;;;5069531;28;20457;-50
2023/08/05 08:56:43;;;;;;;2.58;0.85;;;18.20;99.90;;;;;;5068681;28;20072;-50
2023/08/05 08:59:09;;;;;;;2.13;0.88;;;18.40;99.90;;;;;;5068770;28;20497;-50
2023/08/05 09:01:39;;;;;;;2.97;0.95;;;18.40;99.90;;;;;;5067360;28;20083;-49
2023/08/05 09:04:06;;;;;;;2.53;1.00;;;18.60;99.90;;;;;;5063306;28;20056;-50
2023/08/05 09:06:33;;;;;;;4.60;0.82;;;18.70;99.90;;;;;;5062483;28;20549;-50
2023/08/05 09:08:58;;;;;;;4.32;0.88;;;18.80;99.90;;;;;;5072060;28;20072;-50
2023/08/05 09:11:24;;;;;;;3.47;1.42;;;19.00;99.90;;;;;;5071386;28;20064;-51
2023/08/05 09:13:52;;;;;;;2.67;1.02;;;19.10;99.90;;;;;;5068068;28;20043;-54
2023/08/05 09:16:18;;;;;;;3.53;0.95;;;19.30;99.90;;;;;;5065677;28;20036;-51
2023/08/05 09:18:50;;;;;;;1.55;0.85;;;19.30;99.90;;;;;;5072396;28;20394;-53
2023/08/05 09:21:22;;;;;;;3.17;0.80;;;19.40;99.90;;;;;;5067032;28;20048;-51
2023/08/05 09:23:47;;;;;;;2.58;0.73;;;19.40;99.90;;;;;;5065924;28;20193;-51
2023/08/05 09:26:13;;;;;;;3.60;0.90;;;19.50;99.90;;;;;;5072149;28;20120;-53
2023/08/05 09:28:39;;;;;;;2.65;1.02;;;19.40;99.90;;;;;;5070764;28;20109;-52
2023/08/05 09:31:11;;;;;;;;;;;19.40;99.90;;;;;;5064797;28;20029;-55
2023/08/05 09:33:36;;;;;;;2.08;0.65;;;19.30;99.90;;;;;;5071228;28;19920;-53
2023/08/05 09:36:12;;;;;;;1.63;0.70;;;19.30;99.90;;;;;;5066377;28;20073;-52
2023/08/05 09:38:42;;;;;;;2.42;0.90;;;19.30;99.90;;;;;;5067285;28;20044;-51
2023/08/05 09:41:07;;;;;;;6.95;1.98;;;19.30;99.90;;;;;;5071396;28;20085;-52
2023/08/05 09:43:38;;;;;;;2.78;1.42;;;19.30;99.90;;;;;;5071786;28;20032;-52
2023/08/05 09:46:06;;;;;;;5.25;1.50;;;19.30;99.90;;;;;;5065984;28;20174;-52
2023/08/05 09:48:43;;;;;;;1.70;1.05;;;19.30;99.90;;;;;;5067489;28;20037;-52
2023/08/05 09:51:16;;;;;;;2.60;1.60;;;19.30;99.90;;;;;;5061897;28;20040;-55
2023/08/05 09:53:43;;;;;;;6.68;1.67;;;19.30;99.90;;;;;;5069539;28;20051;-51
2023/08/05 09:56:11;;;;;;;22.00;2.58;;;19.20;99.90;;;;;;5059824;28;20025;-50
2023/08/05 09:58:37;;;;;;;6.75;2.35;;;19.10;99.90;;;;;;5060862;28;20040;-51
2023/08/05 10:01:07;;;;;;;;;;;19.20;99.90;;;;;;5065748;28;20052;-51
2023/08/05 10:03:37;;;;;;;5.85;2.67;;;19.20;99.90;;;;;;5065886;28;19928;-50
2023/08/05 10:06:08;;;;;;;3.95;1.75;;;19.30;99.90;;;;;;5069778;28;20032;-50
2023/08/05 10:08:39;;;;;;;3.33;1.88;;;19.40;99.90;;;;;;5071017;28;20525;-52
2023/08/05 10:11:06;;;;;;;3.10;1.45;;;19.40;99.90;;;;;;5071346;28;20134;-50
2023/08/05 10:13:41;;;;;;;5.68;1.70;;;19.40;99.90;;;;;;5068368;28;20029;-51
2023/08/05 10:16:08;;;;;;;2.08;1.02;;;19.60;99.90;;;;;;5064135;28;20395;-53
2023/08/05 10:18:36;;;;;;;4.03;1.42;;;19.70;99.90;;;;;;5065081;28;20385;-50
2023/08/05 10:21:05;;;;;;;2.88;0.77;;;19.80;99.90;;;;;;5069280;28;20555;-51
2023/08/05 10:23:34;;;;;;;4.63;1.70;;;19.80;99.90;;;;;;5065487;28;20041;-51
2023/08/05 10:26:01;;;;;;;6.07;1.75;;;19.80;99.90;;;;;;5065999;28;20032;-51
2023/08/05 10:28:26;;;;;;;3.22;1.65;;;19.90;99.90;;;;;;5064724;28;20387;-54
2023/08/05 10:30:54;;;;;;;1.73;1.25;;;19.90;99.90;;;;;;5066832;28;20051;-51
2023/08/05 10:33:20;;;;;;;4.63;1.42;;;20.00;99.90;;;;;;5068442;28;20059;-54
2023/08/05 10:35:46;;;;;;;3.20;2.63;;;20.00;99.90;;;;;;5060339;28;20040;-52
2023/08/05 10:38:15;;;;;;;;;;;20.00;99.90;;;;;;5060944;28;20041;-52
2023/08/05 10:40:45;;;;;;;7.95;4.05;;;20.00;99.90;;;;;;5061417;28;20333;-51
2023/08/05 10:43:24;;;;;;;4.65;3.85;;;20.00;99.90;;;;;;5070706;28;20037;-51
2023/08/05 10:45:50;;;;;;;9.13;6.53;;;20.00;99.90;;;;;;5064442;28;20493;-51
2023/08/05 10:48:15;;;;;;;7.82;5.68;;;20.00;99.90;;;;;;5070589;28;20040;-54
2023/08/05 10:50:42;;;;;;;10.02;5.88;;;20.10;99.90;;;;;;5070894;28;20076;-52
2023/08/05 10:53:12;;;;;;;10.45;6.20;;;20.10;99.90;;;;;;5069587;28;20106;-51
2023/08/05 10:55:48;;;;;;;9.00;6.47;;;20.20;99.90;;;;;;5065236;28;20493;-51
2023/08/05 10:58:22;;;;;;;8.25;5.38;;;20.10;99.90;;;;;;5070093;28;20040;-51
2023/08/05 11:01:02;;;;;;;10.68;7.60;;;19.90;99.90;;;;;;5070625;28;20033;-51
2023/08/05 11:03:41;;;;;;;7.25;5.20;;;20.00;99.90;;;;;;5070267;28;20397;-52
2023/08/05 11:06:07;;;;;;;8.93;7.93;;;20.10;99.90;;;;;;5069332;28;20072;-51
2023/08/05 11:08:34;;;;;;;11.48;8.07;;;20.00;99.90;;;;;;5060601;28;20045;-54
2023/08/05 11:11:02;;;;;;;10.45;7.93;;;20.00;99.90;;;;;;5069725;28;20433;-52
2023/08/05 11:13:32;;;;;;;10.70;7.72;;;20.00;99.90;;;;;;5070246;28;20064;-52
2023/08/05 11:16:15;;;;;;;8.95;8.00;;;20.10;99.90;;;;;;5069972;28;20028;-52
2023/08/05 11:18:43;;;;;;;7.90;7.07;;;20.00;99.90;;;;;;5069297;28;20098;-51
2023/08/05 11:21:11;;;;;;;10.32;6.25;;;19.90;99.90;;;;;;5058451;28;20041;-51
2023/08/05 11:23:39;;;;;;;9.50;8.45;;;19.80;99.90;;;;;;5069514;28;20444;-51
2023/08/05 11:26:06;;;;;;;10.93;8.85;;;19.80;99.90;;;;;;5069271;28;20086;-52
2023/08/05 11:28:32;;;;;;;10.70;9.70;;;19.80;99.90;;;;;;5069134;28;20032;-50
2023/08/05 11:31:00;;;;;;;;;;;19.80;99.90;;;;;;5069765;28;20036;-54
2023/08/05 11:33:26;;;;;;;11.95;10.73;;;19.70;99.90;;;;;;5069039;28;20317;-52
2023/08/05 11:35:53;;;;;;;17.58;11.65;;;19.60;99.90;;;;;;5069403;28;20067;-51
2023/08/05 11:38:20;;;;;;;40.75;17.75;;;19.60;99.90;;;;;;5069379;28;20111;-55
2023/08/05 11:40:48;;;;;;;14.02;12.60;;;19.60;99.90;;;;;;5069511;28;20044;-54
2023/08/05 11:43:15;;;;;;;15.48;13.88;;;19.70;99.90;;;;;;5069274;28;20540;-54
2023/08/05 11:45:41;;;;;;;15.48;12.27;;;19.60;99.90;;;;;;5069082;28;20030;-51
2023/08/05 11:48:36;;;;;;;14.48;11.18;;;19.60;99.90;;;;;;5068423;28;20028;-51
2023/08/05 11:51:04;;;;;;;9.55;8.65;;;19.70;99.90;;;;;;5004966;28;20053;-54
2023/08/05 11:53:30;;;;;;;11.85;9.63;;;19.60;99.90;;;;;;5006880;28;20658;-51
2023/08/05 11:55:55;;;;;;;10.23;9.23;;;19.60;99.90;;;;;;5007012;28;20048;-52
2023/08/05 11:58:23;;;;;;;;;;;19.70;99.90;;;;;;5007310;28;20390;-54
2023/08/05 12:00:51;;;;;;;;;;;19.70;99.90;;;;;;5007272;28;19928;-53
2023/08/05 12:03:17;;;;;;;13.50;12.20;;;19.80;99.90;;;;;;5007013;28;19976;-51
2023/08/05 12:05:44;;;;;;;12.02;10.88;;;19.80;99.90;;;;;;5006423;28;20447;-52
2023/08/05 12:08:11;;;;;;;12.50;11.23;;;19.80;99.90;;;;;;5003589;28;20046;-58
2023/08/05 12:10:38;;;;;;;13.93;10.88;;;19.90;99.90;;;;;;5005188;28;20115;-52
2023/08/05 12:13:04;;;;;;;12.38;10.77;;;19.90;99.90;;;;;;5006392;28;20045;-52
2023/08/05 12:15:30;;;;;;;17.08;12.88;;;20.00;99.90;;;;;;5006445;28;20038;-52
2023/08/05 12:18:01;;;;;;;16.05;12.35;;;20.00;99.90;;;;;;4990272;28;20574;-52
2023/08/05 12:20:28;;;;;;;11.73;10.10;;;20.00;99.90;;;;;;5006460;28;20430;-52
2023/08/05 12:22:55;;;;;;;13.88;11.20;;;20.00;99.90;;;;;;5006629;28;20048;-52
2023/08/05 12:25:22;;;;;;;12.32;11.13;;;20.10;99.90;;;;;;5006453;28;20156;-52
2023/08/05 12:27:48;;;;;;;13.65;9.90;;;20.20;99.90;;;;;;5046480;28;20433;-52
2023/08/05 12:30:14;;;;;;;11.48;10.38;;;20.20;99.90;;;;;;5068992;28;20132;-54
2023/08/05 12:32:40;;;;;;;10.82;9.02;;;20.30;99.90;;;;;;5069023;28;20047;-53
2023/08/05 12:35:08;;;;;;;10.23;9.15;;;20.30;99.90;;;;;;5068731;28;20032;-51
2023/08/05 12:37:35;;;;;;;11.35;9.05;;;20.40;99.90;;;;;;5068007;28;20032;-51
2023/08/05 12:40:04;;;;;;;11.73;10.38;;;20.40;99.90;;;;;;5067803;28;20135;-53
2023/08/05 12:42:31;;;;;;;16.10;10.82;;;20.50;99.90;;;;;;5072185;28;20052;-52